航空気象通報

ウインドサーファーのための航空気象通報による風予報です。

12/24-12/26の航空気象通報

2016年12月24日 22時50分27秒 | TAF
羽田空港
TAF RJTT 241105Z 2412/2518 36012KT 9999 FEW030 SCT060
BECMG 2503/2506 07004KT
BECMG 2509/2512 36006KT
日本時間24日21時-25日12時:360度から12ノットの風
12-15時:風が変化
15-18時:070度から4ノットの風
18-21時:風が変化
21時-26日03時:360度から6ノットの風


静岡空港
TAF RJNS 241105Z 2412/2518 34005KT 9999 FEW020 SCT040
BECMG 2500/2503 18004KT
BECMG 2509/2512 34005KT
日本時間24日21時-25日09時:340度から5ノットの風
09-12時:風が変化
12-18時:180度から4ノットの風
18-21時:風が変化
21時-26日03時:340度から5ノットの風


福岡空港
TAF RJFF 241107Z 2412/2518 14005KT 9999 FEW040
日本時間24日21時-26日03時:140度から5ノットの風


那覇空港
TAF ROAH 241105Z 2412/2518 05008KT 9999 FEW035 SCT045
日本時間24日21時-26日03時:050度から8ノットの風


石垣空港
TAF ROIG 241108Z 2412/2518 06013KT 9999 FEW030 BKN045
日本時間24日21時-26日03時:060度から13ノットの風


マウイのカフルイ空港
PHOG 241259Z 2413/2512 05012KT P6SM VCSH FEW030 SCT050
TEMPO 2413/2417 10006KT
FM242000 06020G30KT P6SM VCSH FEW030 SCT050
FM250400 06014G22KT P6SM VCSH FEW030 SCT050 AMD LTD TO VIS AND WIND TIL 241600
ハワイ時間24日02-10時:050度から12ノットの風
但し、03-07時の間:ときどき100度から6ノットの風
10-18時:060度から20ノット、突風30ノット
18時-25日02時:060度から14ノット、突風22ノット


サイパン空港
TAF PGSN 241127Z 2412/2512 09011KT P6SM FEW020 SCT070
マリアナ時間24日22時-25日22時:090度から11ノットの風

ジャンル:
お天気
コメント   この記事についてブログを書く
この記事をはてなブックマークに追加
« 12/23-12/25の航空気象通報 | トップ | 12/26-12/28の航空気象通報 »
最近の画像もっと見る

コメントを投稿

ブログ作成者から承認されるまでコメントは反映されません。

TAF」カテゴリの最新記事

トラックバック

この記事のトラックバック  Ping-URL
ブログ作成者から承認されるまでトラックバックは反映されません。
  • 30日以上前の記事に対するトラックバックは受け取らないよう設定されております。
  • 送信元の記事内容が半角英数のみのトラックバックは受け取らないよう設定されております。
  • このブログへのリンクがない記事からのトラックバックは受け取らないよう設定されております。
  • ※ブログ管理者のみ、編集画面で設定の変更が可能です。